sensor_id;sensor_type;location;lat;lon;timestamp;P1;durP1;ratioP1;P2;durP2;ratioP2
77563;SDS011;66703;48.076;9.220;2023-03-11T00:01:26;10.18;;;9.65;;
77563;SDS011;66703;48.076;9.220;2023-03-11T00:03:52;25.98;;;24.98;;
77563;SDS011;66703;48.076;9.220;2023-03-11T00:06:17;26.55;;;25.70;;
77563;SDS011;66703;48.076;9.220;2023-03-11T00:08:42;9.52;;;9.10;;
77563;SDS011;66703;48.076;9.220;2023-03-11T00:11:08;14.43;;;13.90;;
77563;SDS011;66703;48.076;9.220;2023-03-11T00:13:33;14.65;;;14.15;;
77563;SDS011;66703;48.076;9.220;2023-03-11T00:16:00;12.63;;;12.05;;
77563;SDS011;66703;48.076;9.220;2023-03-11T00:18:26;13.95;;;13.32;;
77563;SDS011;66703;48.076;9.220;2023-03-11T00:20:57;10.02;;;9.60;;
77563;SDS011;66703;48.076;9.220;2023-03-11T00:23:23;10.68;;;10.02;;
77563;SDS011;66703;48.076;9.220;2023-03-11T00:25:50;15.30;;;14.68;;
77563;SDS011;66703;48.076;9.220;2023-03-11T00:28:15;10.23;;;9.73;;
77563;SDS011;66703;48.076;9.220;2023-03-11T00:30:41;22.92;;;22.02;;
77563;SDS011;66703;48.076;9.220;2023-03-11T00:33:08;8.18;;;7.78;;
77563;SDS011;66703;48.076;9.220;2023-03-11T00:35:35;12.70;;;12.07;;
77563;SDS011;66703;48.076;9.220;2023-03-11T00:38:02;11.30;;;10.75;;
77563;SDS011;66703;48.076;9.220;2023-03-11T00:40:30;15.98;;;15.38;;
77563;SDS011;66703;48.076;9.220;2023-03-11T00:42:56;10.80;;;10.30;;
77563;SDS011;66703;48.076;9.220;2023-03-11T00:45:22;15.57;;;14.98;;
77563;SDS011;66703;48.076;9.220;2023-03-11T00:47:48;13.23;;;12.63;;
77563;SDS011;66703;48.076;9.220;2023-03-11T00:50:15;10.05;;;9.55;;
77563;SDS011;66703;48.076;9.220;2023-03-11T00:52:43;11.85;;;11.32;;
77563;SDS011;66703;48.076;9.220;2023-03-11T00:55:09;11.50;;;10.98;;
77563;SDS011;66703;48.076;9.220;2023-03-11T00:57:37;25.65;;;24.75;;
77563;SDS011;66703;48.076;9.220;2023-03-11T01:00:04;16.15;;;15.48;;
77563;SDS011;66703;48.076;9.220;2023-03-11T01:02:31;11.35;;;10.75;;
77563;SDS011;66703;48.076;9.220;2023-03-11T01:04:56;12.75;;;12.25;;
77563;SDS011;66703;48.076;9.220;2023-03-11T01:07:22;14.43;;;13.80;;
77563;SDS011;66703;48.076;9.220;2023-03-11T01:09:47;25.15;;;24.23;;
77563;SDS011;66703;48.076;9.220;2023-03-11T01:12:12;13.20;;;12.65;;
77563;SDS011;66703;48.076;9.220;2023-03-11T01:14:38;12.68;;;12.18;;
77563;SDS011;66703;48.076;9.220;2023-03-11T01:17:04;26.73;;;25.73;;
77563;SDS011;66703;48.076;9.220;2023-03-11T01:19:29;11.85;;;11.18;;
77563;SDS011;66703;48.076;9.220;2023-03-11T01:21:54;13.57;;;13.00;;
77563;SDS011;66703;48.076;9.220;2023-03-11T01:24:20;11.07;;;10.48;;
77563;SDS011;66703;48.076;9.220;2023-03-11T01:26:45;9.20;;;8.75;;
77563;SDS011;66703;48.076;9.220;2023-03-11T01:29:13;12.48;;;11.98;;
77563;SDS011;66703;48.076;9.220;2023-03-11T01:31:39;15.52;;;14.75;;
77563;SDS011;66703;48.076;9.220;2023-03-11T01:34:04;13.10;;;12.30;;
77563;SDS011;66703;48.076;9.220;2023-03-11T01:36:30;19.55;;;18.83;;
77563;SDS011;66703;48.076;9.220;2023-03-11T01:38:55;10.25;;;9.77;;
77563;SDS011;66703;48.076;9.220;2023-03-11T01:41:20;9.50;;;9.00;;
77563;SDS011;66703;48.076;9.220;2023-03-11T01:43:47;13.98;;;13.38;;
77563;SDS011;66703;48.076;9.220;2023-03-11T01:46:22;10.70;;;10.20;;
77563;SDS011;66703;48.076;9.220;2023-03-11T01:48:50;26.38;;;25.45;;
77563;SDS011;66703;48.076;9.220;2023-03-11T01:51:37;9.23;;;8.80;;
77563;SDS011;66703;48.076;9.220;2023-03-11T01:54:15;12.68;;;12.07;;
77563;SDS011;66703;48.076;9.220;2023-03-11T01:56:42;17.88;;;17.20;;
77563;SDS011;66703;48.076;9.220;2023-03-11T01:59:10;17.50;;;16.90;;
77563;SDS011;66703;48.076;9.220;2023-03-11T02:01:37;17.75;;;16.98;;
77563;SDS011;66703;48.076;9.220;2023-03-11T02:04:10;11.95;;;11.45;;
77563;SDS011;66703;48.076;9.220;2023-03-11T02:06:35;11.18;;;10.63;;
77563;SDS011;66703;48.076;9.220;2023-03-11T02:09:01;12.32;;;11.75;;
77563;SDS011;66703;48.076;9.220;2023-03-11T02:11:27;27.08;;;26.25;;
77563;SDS011;66703;48.076;9.220;2023-03-11T02:13:55;17.05;;;16.20;;
77563;SDS011;66703;48.076;9.220;2023-03-11T02:16:23;12.10;;;11.55;;
77563;SDS011;66703;48.076;9.220;2023-03-11T02:18:50;9.25;;;8.85;;
77563;SDS011;66703;48.076;9.220;2023-03-11T02:29:24;13.73;;;13.23;;
77563;SDS011;66703;48.076;9.220;2023-03-11T02:31:51;14.02;;;13.48;;
77563;SDS011;66703;48.076;9.220;2023-03-11T02:34:36;12.07;;;11.50;;
77563;SDS011;66703;48.076;9.220;2023-03-11T02:37:07;10.50;;;10.05;;
77563;SDS011;66703;48.076;9.220;2023-03-11T02:39:42;35.65;;;34.65;;
77563;SDS011;66703;48.076;9.220;2023-03-11T02:42:22;13.88;;;13.38;;
77563;SDS011;66703;48.076;9.220;2023-03-11T02:44:55;18.52;;;17.88;;
77563;SDS011;66703;48.076;9.220;2023-03-11T02:47:24;13.10;;;12.60;;
77563;SDS011;66703;48.076;9.220;2023-03-11T02:49:50;19.38;;;18.73;;
77563;SDS011;66703;48.076;9.220;2023-03-11T02:52:16;26.42;;;25.58;;
77563;SDS011;66703;48.076;9.220;2023-03-11T02:54:42;25.25;;;24.42;;
77563;SDS011;66703;48.076;9.220;2023-03-11T02:57:07;12.82;;;12.20;;
77563;SDS011;66703;48.076;9.220;2023-03-11T02:59:33;11.23;;;10.82;;
77563;SDS011;66703;48.076;9.220;2023-03-11T03:01:58;15.65;;;14.88;;
77563;SDS011;66703;48.076;9.220;2023-03-11T03:04:24;20.08;;;19.27;;
77563;SDS011;66703;48.076;9.220;2023-03-11T03:06:49;11.75;;;11.32;;
77563;SDS011;66703;48.076;9.220;2023-03-11T03:09:14;15.70;;;14.90;;
77563;SDS011;66703;48.076;9.220;2023-03-11T03:11:40;22.23;;;21.50;;
77563;SDS011;66703;48.076;9.220;2023-03-11T03:14:05;17.60;;;16.90;;
77563;SDS011;66703;48.076;9.220;2023-03-11T03:16:30;12.02;;;11.48;;
77563;SDS011;66703;48.076;9.220;2023-03-11T03:18:56;17.88;;;17.25;;
77563;SDS011;66703;48.076;9.220;2023-03-11T03:21:21;22.67;;;21.85;;
77563;SDS011;66703;48.076;9.220;2023-03-11T03:23:47;14.73;;;14.15;;
77563;SDS011;66703;48.076;9.220;2023-03-11T03:26:12;17.50;;;16.73;;
77563;SDS011;66703;48.076;9.220;2023-03-11T03:28:38;16.27;;;15.65;;
77563;SDS011;66703;48.076;9.220;2023-03-11T03:31:07;14.07;;;13.43;;
77563;SDS011;66703;48.076;9.220;2023-03-11T03:33:33;14.80;;;14.30;;
77563;SDS011;66703;48.076;9.220;2023-03-11T03:36:17;12.13;;;11.52;;
77563;SDS011;66703;48.076;9.220;2023-03-11T03:38:42;14.70;;;14.18;;
77563;SDS011;66703;48.076;9.220;2023-03-11T03:41:08;16.33;;;15.70;;
77563;SDS011;66703;48.076;9.220;2023-03-11T03:43:33;19.58;;;18.95;;
77563;SDS011;66703;48.076;9.220;2023-03-11T03:46:00;12.23;;;11.65;;
77563;SDS011;66703;48.076;9.220;2023-03-11T03:48:27;19.38;;;18.33;;
77563;SDS011;66703;48.076;9.220;2023-03-11T03:50:52;28.40;;;27.50;;
77563;SDS011;66703;48.076;9.220;2023-03-11T03:53:18;15.48;;;14.88;;
77563;SDS011;66703;48.076;9.220;2023-03-11T03:55:43;29.10;;;28.15;;
77563;SDS011;66703;48.076;9.220;2023-03-11T03:58:09;14.30;;;13.73;;
77563;SDS011;66703;48.076;9.220;2023-03-11T04:00:34;15.05;;;14.52;;
77563;SDS011;66703;48.076;9.220;2023-03-11T04:03:00;22.20;;;21.38;;
77563;SDS011;66703;48.076;9.220;2023-03-11T04:05:25;13.65;;;13.15;;
77563;SDS011;66703;48.076;9.220;2023-03-11T04:07:52;15.57;;;15.00;;
77563;SDS011;66703;48.076;9.220;2023-03-11T04:10:18;15.57;;;14.98;;
77563;SDS011;66703;48.076;9.220;2023-03-11T04:12:43;10.23;;;9.80;;
77563;SDS011;66703;48.076;9.220;2023-03-11T04:15:09;12.60;;;12.10;;
77563;SDS011;66703;48.076;9.220;2023-03-11T04:17:35;12.02;;;11.52;;
77563;SDS011;66703;48.076;9.220;2023-03-11T04:20:01;9.63;;;9.23;;
77563;SDS011;66703;48.076;9.220;2023-03-11T04:22:26;9.50;;;9.13;;
77563;SDS011;66703;48.076;9.220;2023-03-11T04:24:52;12.35;;;11.95;;
77563;SDS011;66703;48.076;9.220;2023-03-11T04:27:17;12.48;;;11.98;;
77563;SDS011;66703;48.076;9.220;2023-03-11T04:29:42;15.25;;;14.65;;
77563;SDS011;66703;48.076;9.220;2023-03-11T04:32:08;9.25;;;8.85;;
77563;SDS011;66703;48.076;9.220;2023-03-11T04:34:33;11.35;;;10.93;;
77563;SDS011;66703;48.076;9.220;2023-03-11T04:36:58;20.13;;;19.40;;
77563;SDS011;66703;48.076;9.220;2023-03-11T04:39:24;13.40;;;12.82;;
77563;SDS011;66703;48.076;9.220;2023-03-11T04:41:49;18.75;;;18.10;;
77563;SDS011;66703;48.076;9.220;2023-03-11T04:44:15;18.30;;;17.70;;
77563;SDS011;66703;48.076;9.220;2023-03-11T04:46:40;15.45;;;14.85;;
77563;SDS011;66703;48.076;9.220;2023-03-11T04:49:05;13.02;;;12.52;;
77563;SDS011;66703;48.076;9.220;2023-03-11T04:51:31;12.95;;;12.45;;
77563;SDS011;66703;48.076;9.220;2023-03-11T04:53:56;14.80;;;14.27;;
77563;SDS011;66703;48.076;9.220;2023-03-11T04:56:21;36.63;;;35.50;;
77563;SDS011;66703;48.076;9.220;2023-03-11T04:58:47;24.25;;;23.40;;
77563;SDS011;66703;48.076;9.220;2023-03-11T05:01:12;14.77;;;13.98;;
77563;SDS011;66703;48.076;9.220;2023-03-11T05:03:37;19.50;;;18.90;;
77563;SDS011;66703;48.076;9.220;2023-03-11T05:06:03;15.10;;;14.60;;
77563;SDS011;66703;48.076;9.220;2023-03-11T05:08:28;24.40;;;23.38;;
77563;SDS011;66703;48.076;9.220;2023-03-11T05:10:54;15.82;;;15.13;;
77563;SDS011;66703;48.076;9.220;2023-03-11T05:13:19;12.55;;;12.05;;
77563;SDS011;66703;48.076;9.220;2023-03-11T05:15:48;17.13;;;16.50;;
77563;SDS011;66703;48.076;9.220;2023-03-11T05:18:14;13.85;;;13.07;;
77563;SDS011;66703;48.076;9.220;2023-03-11T05:20:39;10.30;;;9.88;;
77563;SDS011;66703;48.076;9.220;2023-03-11T05:23:05;16.48;;;15.82;;
77563;SDS011;66703;48.076;9.220;2023-03-11T05:25:30;17.60;;;16.98;;
77563;SDS011;66703;48.076;9.220;2023-03-11T05:27:55;16.95;;;16.25;;
77563;SDS011;66703;48.076;9.220;2023-03-11T05:30:21;19.20;;;18.55;;
77563;SDS011;66703;48.076;9.220;2023-03-11T05:32:47;14.95;;;14.40;;
77563;SDS011;66703;48.076;9.220;2023-03-11T05:35:12;13.52;;;13.00;;
77563;SDS011;66703;48.076;9.220;2023-03-11T05:37:38;14.25;;;13.75;;
77563;SDS011;66703;48.076;9.220;2023-03-11T05:40:04;21.83;;;20.90;;
77563;SDS011;66703;48.076;9.220;2023-03-11T05:42:31;16.98;;;16.02;;
77563;SDS011;66703;48.076;9.220;2023-03-11T05:44:57;21.23;;;20.52;;
77563;SDS011;66703;48.076;9.220;2023-03-11T05:47:23;20.45;;;19.60;;
77563;SDS011;66703;48.076;9.220;2023-03-11T05:49:48;17.23;;;16.55;;
77563;SDS011;66703;48.076;9.220;2023-03-11T05:52:14;27.83;;;26.85;;
77563;SDS011;66703;48.076;9.220;2023-03-11T05:54:39;18.10;;;17.48;;
77563;SDS011;66703;48.076;9.220;2023-03-11T05:57:05;14.18;;;13.68;;
77563;SDS011;66703;48.076;9.220;2023-03-11T05:59:30;15.27;;;14.57;;
77563;SDS011;66703;48.076;9.220;2023-03-11T06:01:59;12.70;;;12.27;;
77563;SDS011;66703;48.076;9.220;2023-03-11T06:04:25;19.67;;;19.05;;
77563;SDS011;66703;48.076;9.220;2023-03-11T06:06:51;14.00;;;13.50;;
77563;SDS011;66703;48.076;9.220;2023-03-11T06:09:16;19.38;;;18.67;;
77563;SDS011;66703;48.076;9.220;2023-03-11T06:11:42;15.45;;;14.93;;
77563;SDS011;66703;48.076;9.220;2023-03-11T06:14:11;20.08;;;19.35;;
77563;SDS011;66703;48.076;9.220;2023-03-11T06:16:37;25.80;;;24.98;;
77563;SDS011;66703;48.076;9.220;2023-03-11T06:19:03;18.88;;;18.17;;
77563;SDS011;66703;48.076;9.220;2023-03-11T06:21:28;16.67;;;15.95;;
77563;SDS011;66703;48.076;9.220;2023-03-11T06:23:54;16.80;;;16.20;;
77563;SDS011;66703;48.076;9.220;2023-03-11T06:26:20;24.08;;;23.25;;
77563;SDS011;66703;48.076;9.220;2023-03-11T06:28:46;19.05;;;18.25;;
77563;SDS011;66703;48.076;9.220;2023-03-11T06:31:20;24.15;;;23.23;;
77563;SDS011;66703;48.076;9.220;2023-03-11T06:33:48;15.57;;;14.93;;
77563;SDS011;66703;48.076;9.220;2023-03-11T06:36:15;11.52;;;11.02;;
77563;SDS011;66703;48.076;9.220;2023-03-11T06:38:41;17.77;;;17.10;;
77563;SDS011;66703;48.076;9.220;2023-03-11T06:41:07;15.07;;;14.45;;
77563;SDS011;66703;48.076;9.220;2023-03-11T06:43:34;14.63;;;14.10;;
77563;SDS011;66703;48.076;9.220;2023-03-11T06:46:00;13.23;;;12.73;;
77563;SDS011;66703;48.076;9.220;2023-03-11T06:48:30;18.30;;;17.70;;
77563;SDS011;66703;48.076;9.220;2023-03-11T06:50:56;22.13;;;21.40;;
77563;SDS011;66703;48.076;9.220;2023-03-11T06:53:22;19.67;;;18.95;;
77563;SDS011;66703;48.076;9.220;2023-03-11T06:56:01;19.45;;;18.80;;
77563;SDS011;66703;48.076;9.220;2023-03-11T06:58:32;18.00;;;17.38;;
77563;SDS011;66703;48.076;9.220;2023-03-11T07:01:06;15.95;;;15.35;;
77563;SDS011;66703;48.076;9.220;2023-03-11T07:03:34;14.73;;;14.23;;
77563;SDS011;66703;48.076;9.220;2023-03-11T07:05:59;21.98;;;21.27;;
77563;SDS011;66703;48.076;9.220;2023-03-11T07:08:25;22.98;;;22.00;;
77563;SDS011;66703;48.076;9.220;2023-03-11T07:11:04;17.17;;;16.58;;
77563;SDS011;66703;48.076;9.220;2023-03-11T07:13:31;14.98;;;14.48;;
77563;SDS011;66703;48.076;9.220;2023-03-11T07:16:04;15.00;;;14.25;;
77563;SDS011;66703;48.076;9.220;2023-03-11T07:18:33;21.95;;;21.23;;
77563;SDS011;66703;48.076;9.220;2023-03-11T07:21:03;17.90;;;17.30;;
77563;SDS011;66703;48.076;9.220;2023-03-11T07:23:29;23.98;;;23.20;;
77563;SDS011;66703;48.076;9.220;2023-03-11T07:25:58;19.52;;;18.83;;
77563;SDS011;66703;48.076;9.220;2023-03-11T07:28:24;17.58;;;16.88;;
77563;SDS011;66703;48.076;9.220;2023-03-11T07:30:50;18.58;;;17.98;;
77563;SDS011;66703;48.076;9.220;2023-03-11T07:33:16;13.38;;;12.73;;
77563;SDS011;66703;48.076;9.220;2023-03-11T07:35:42;12.77;;;12.27;;
77563;SDS011;66703;48.076;9.220;2023-03-11T07:38:08;14.35;;;13.70;;
77563;SDS011;66703;48.076;9.220;2023-03-11T07:40:34;14.55;;;13.85;;
77563;SDS011;66703;48.076;9.220;2023-03-11T07:42:59;18.83;;;18.20;;
77563;SDS011;66703;48.076;9.220;2023-03-11T07:45:24;14.07;;;13.57;;
77563;SDS011;66703;48.076;9.220;2023-03-11T07:47:50;17.95;;;17.38;;
77563;SDS011;66703;48.076;9.220;2023-03-11T07:50:18;21.15;;;19.95;;
77563;SDS011;66703;48.076;9.220;2023-03-11T07:52:46;17.92;;;17.23;;
77563;SDS011;66703;48.076;9.220;2023-03-11T07:55:15;31.83;;;30.73;;
77563;SDS011;66703;48.076;9.220;2023-03-11T07:57:40;15.52;;;15.00;;
77563;SDS011;66703;48.076;9.220;2023-03-11T08:00:06;16.38;;;15.77;;
77563;SDS011;66703;48.076;9.220;2023-03-11T08:02:33;12.77;;;12.18;;
77563;SDS011;66703;48.076;9.220;2023-03-11T08:04:58;14.10;;;13.52;;
77563;SDS011;66703;48.076;9.220;2023-03-11T08:07:23;27.38;;;26.52;;
77563;SDS011;66703;48.076;9.220;2023-03-11T08:09:49;13.57;;;13.00;;
77563;SDS011;66703;48.076;9.220;2023-03-11T08:12:14;21.63;;;20.80;;
77563;SDS011;66703;48.076;9.220;2023-03-11T08:14:40;12.75;;;12.27;;
77563;SDS011;66703;48.076;9.220;2023-03-11T08:17:07;8.50;;;8.10;;
77563;SDS011;66703;48.076;9.220;2023-03-11T08:19:33;13.15;;;12.55;;
77563;SDS011;66703;48.076;9.220;2023-03-11T08:22:00;15.82;;;15.30;;
77563;SDS011;66703;48.076;9.220;2023-03-11T08:24:26;12.38;;;11.65;;
77563;SDS011;66703;48.076;9.220;2023-03-11T08:26:51;12.32;;;11.88;;
77563;SDS011;66703;48.076;9.220;2023-03-11T08:29:17;14.30;;;13.70;;
77563;SDS011;66703;48.076;9.220;2023-03-11T08:31:42;10.57;;;10.15;;
77563;SDS011;66703;48.076;9.220;2023-03-11T08:34:08;15.88;;;15.35;;
77563;SDS011;66703;48.076;9.220;2023-03-11T08:36:34;23.10;;;22.40;;
77563;SDS011;66703;48.076;9.220;2023-03-11T08:39:00;14.70;;;14.07;;
77563;SDS011;66703;48.076;9.220;2023-03-11T08:41:25;21.15;;;20.45;;
77563;SDS011;66703;48.076;9.220;2023-03-11T08:43:51;13.90;;;13.27;;
77563;SDS011;66703;48.076;9.220;2023-03-11T08:48:52;11.63;;;11.23;;
77563;SDS011;66703;48.076;9.220;2023-03-11T08:51:18;20.83;;;20.13;;
77563;SDS011;66703;48.076;9.220;2023-03-11T08:53:44;12.73;;;12.23;;
77563;SDS011;66703;48.076;9.220;2023-03-11T08:56:10;15.20;;;14.60;;
77563;SDS011;66703;48.076;9.220;2023-03-11T08:58:35;14.88;;;13.43;;
77563;SDS011;66703;48.076;9.220;2023-03-11T09:01:01;11.18;;;10.70;;
77563;SDS011;66703;48.076;9.220;2023-03-11T09:03:26;16.55;;;15.85;;
77563;SDS011;66703;48.076;9.220;2023-03-11T09:05:57;25.05;;;24.17;;
77563;SDS011;66703;48.076;9.220;2023-03-11T09:10:48;11.77;;;11.35;;
77563;SDS011;66703;48.076;9.220;2023-03-11T09:13:14;15.07;;;14.50;;
77563;SDS011;66703;48.076;9.220;2023-03-11T09:15:39;10.73;;;10.32;;
77563;SDS011;66703;48.076;9.220;2023-03-11T09:18:05;11.32;;;10.93;;
77563;SDS011;66703;48.076;9.220;2023-03-11T09:20:33;13.90;;;13.15;;
77563;SDS011;66703;48.076;9.220;2023-03-11T09:23:02;15.25;;;14.63;;
77563;SDS011;66703;48.076;9.220;2023-03-11T09:25:27;14.75;;;14.25;;
77563;SDS011;66703;48.076;9.220;2023-03-11T09:27:53;21.20;;;20.50;;
77563;SDS011;66703;48.076;9.220;2023-03-11T09:30:18;10.88;;;10.40;;
77563;SDS011;66703;48.076;9.220;2023-03-11T09:32:44;9.07;;;8.65;;
77563;SDS011;66703;48.076;9.220;2023-03-11T09:35:09;14.98;;;14.43;;
77563;SDS011;66703;48.076;9.220;2023-03-11T09:37:34;14.23;;;13.40;;
77563;SDS011;66703;48.076;9.220;2023-03-11T09:40:00;8.90;;;8.57;;
77563;SDS011;66703;48.076;9.220;2023-03-11T09:42:40;8.95;;;8.55;;
77563;SDS011;66703;48.076;9.220;2023-03-11T09:45:51;7.03;;;6.63;;
77563;SDS011;66703;48.076;9.220;2023-03-11T10:04:13;5.13;;;4.82;;
77563;SDS011;66703;48.076;9.220;2023-03-11T10:06:44;9.15;;;8.70;;
77563;SDS011;66703;48.076;9.220;2023-03-11T10:11:40;5.82;;;5.57;;
77563;SDS011;66703;48.076;9.220;2023-03-11T10:27:49;5.20;;;4.75;;
77563;SDS011;66703;48.076;9.220;2023-03-11T10:32:55;5.13;;;4.82;;
77563;SDS011;66703;48.076;9.220;2023-03-11T10:35:35;6.55;;;6.15;;
77563;SDS011;66703;48.076;9.220;2023-03-11T10:38:17;4.95;;;4.65;;
77563;SDS011;66703;48.076;9.220;2023-03-11T10:40:54;4.30;;;3.90;;
77563;SDS011;66703;48.076;9.220;2023-03-11T10:46:18;5.60;;;5.35;;
77563;SDS011;66703;48.076;9.220;2023-03-11T10:53:47;3.03;;;2.83;;
77563;SDS011;66703;48.076;9.220;2023-03-11T10:56:28;2.85;;;2.65;;
77563;SDS011;66703;48.076;9.220;2023-03-11T10:59:02;4.30;;;3.83;;
77563;SDS011;66703;48.076;9.220;2023-03-11T11:01:30;4.32;;;4.13;;
77563;SDS011;66703;48.076;9.220;2023-03-11T11:03:56;4.75;;;4.55;;
77563;SDS011;66703;48.076;9.220;2023-03-11T11:06:26;3.80;;;3.50;;
77563;SDS011;66703;48.076;9.220;2023-03-11T11:11:33;5.57;;;3.25;;
77563;SDS011;66703;48.076;9.220;2023-03-11T11:14:00;2.97;;;2.75;;
77563;SDS011;66703;48.076;9.220;2023-03-11T11:16:26;4.20;;;3.83;;
77563;SDS011;66703;48.076;9.220;2023-03-11T11:19:00;3.67;;;3.47;;
77563;SDS011;66703;48.076;9.220;2023-03-11T11:21:41;4.03;;;3.72;;
77563;SDS011;66703;48.076;9.220;2023-03-11T11:24:26;3.45;;;2.60;;
77563;SDS011;66703;48.076;9.220;2023-03-11T11:32:34;5.30;;;4.70;;
77563;SDS011;66703;48.076;9.220;2023-03-11T11:35:04;4.47;;;4.18;;
77563;SDS011;66703;48.076;9.220;2023-03-11T11:40:06;4.10;;;3.88;;
77563;SDS011;66703;48.076;9.220;2023-03-11T11:42:58;4.32;;;3.92;;
77563;SDS011;66703;48.076;9.220;2023-03-11T11:45:40;3.75;;;3.55;;
77563;SDS011;66703;48.076;9.220;2023-03-11T11:48:13;4.10;;;3.80;;
77563;SDS011;66703;48.076;9.220;2023-03-11T11:55:46;3.53;;;3.22;;
77563;SDS011;66703;48.076;9.220;2023-03-11T11:58:13;4.43;;;4.18;;
77563;SDS011;66703;48.076;9.220;2023-03-11T12:05:58;3.55;;;3.25;;
77563;SDS011;66703;48.076;9.220;2023-03-11T12:08:37;4.57;;;4.28;;
77563;SDS011;66703;48.076;9.220;2023-03-11T12:11:06;3.78;;;3.47;;
77563;SDS011;66703;48.076;9.220;2023-03-11T12:27:08;3.22;;;2.97;;
77563;SDS011;66703;48.076;9.220;2023-03-11T12:29:40;2.97;;;2.78;;
77563;SDS011;66703;48.076;9.220;2023-03-11T12:32:14;3.05;;;2.80;;
77563;SDS011;66703;48.076;9.220;2023-03-11T12:34:47;2.45;;;2.30;;
77563;SDS011;66703;48.076;9.220;2023-03-11T12:37:13;3.97;;;3.67;;
77563;SDS011;66703;48.076;9.220;2023-03-11T12:39:40;3.00;;;2.80;;
77563;SDS011;66703;48.076;9.220;2023-03-11T12:44:35;2.88;;;2.67;;
77563;SDS011;66703;48.076;9.220;2023-03-11T12:49:33;3.65;;;3.45;;
77563;SDS011;66703;48.076;9.220;2023-03-11T13:05:54;2.78;;;2.58;;
77563;SDS011;66703;48.076;9.220;2023-03-11T13:08:33;2.33;;;2.05;;
77563;SDS011;66703;48.076;9.220;2023-03-11T13:14:41;2.55;;;2.30;;
77563;SDS011;66703;48.076;9.220;2023-03-11T13:16:47;2.20;;;2.05;;
77563;SDS011;66703;48.076;9.220;2023-03-11T13:21:51;2.17;;;1.88;;
77563;SDS011;66703;48.076;9.220;2023-03-11T13:26:43;2.67;;;2.47;;
77563;SDS011;66703;48.076;9.220;2023-03-11T13:34:44;2.40;;;2.20;;
77563;SDS011;66703;48.076;9.220;2023-03-11T13:39:48;3.25;;;3.05;;
77563;SDS011;66703;48.076;9.220;2023-03-11T13:42:50;2.97;;;2.67;;
77563;SDS011;66703;48.076;9.220;2023-03-11T13:45:34;2.95;;;2.75;;
77563;SDS011;66703;48.076;9.220;2023-03-11T13:48:03;4.05;;;2.60;;
77563;SDS011;66703;48.076;9.220;2023-03-11T13:50:52;2.70;;;2.15;;
77563;SDS011;66703;48.076;9.220;2023-03-11T13:53:37;3.13;;;2.92;;
77563;SDS011;66703;48.076;9.220;2023-03-11T13:56:15;2.50;;;2.30;;
77563;SDS011;66703;48.076;9.220;2023-03-11T13:58:41;2.80;;;2.60;;
77563;SDS011;66703;48.076;9.220;2023-03-11T14:01:10;3.08;;;2.88;;
77563;SDS011;66703;48.076;9.220;2023-03-11T14:03:40;2.67;;;2.47;;
77563;SDS011;66703;48.076;9.220;2023-03-11T14:06:08;3.00;;;2.80;;
77563;SDS011;66703;48.076;9.220;2023-03-11T14:08:37;2.95;;;2.65;;
77563;SDS011;66703;48.076;9.220;2023-03-11T14:13:32;3.05;;;2.40;;
77563;SDS011;66703;48.076;9.220;2023-03-11T14:16:12;4.30;;;4.00;;
77563;SDS011;66703;48.076;9.220;2023-03-11T14:18:41;3.90;;;3.60;;
77563;SDS011;66703;48.076;9.220;2023-03-11T14:21:20;4.07;;;2.75;;
77563;SDS011;66703;48.076;9.220;2023-03-11T14:28:48;5.68;;;5.35;;
77563;SDS011;66703;48.076;9.220;2023-03-11T14:33:58;4.20;;;3.88;;
77563;SDS011;66703;48.076;9.220;2023-03-11T14:36:40;3.13;;;2.60;;
77563;SDS011;66703;48.076;9.220;2023-03-11T14:41:49;3.25;;;2.95;;
77563;SDS011;66703;48.076;9.220;2023-03-11T14:44:15;3.80;;;3.50;;
77563;SDS011;66703;48.076;9.220;2023-03-11T14:46:41;3.10;;;2.80;;
77563;SDS011;66703;48.076;9.220;2023-03-11T14:49:10;3.63;;;2.95;;
77563;SDS011;66703;48.076;9.220;2023-03-11T14:51:40;3.33;;;3.03;;
77563;SDS011;66703;48.076;9.220;2023-03-11T14:54:07;2.88;;;2.58;;
77563;SDS011;66703;48.076;9.220;2023-03-11T14:56:45;2.90;;;2.70;;
77563;SDS011;66703;48.076;9.220;2023-03-11T14:59:33;3.17;;;2.88;;
77563;SDS011;66703;48.076;9.220;2023-03-11T15:04:55;3.55;;;3.25;;
77563;SDS011;66703;48.076;9.220;2023-03-11T15:07:21;3.45;;;3.20;;
77563;SDS011;66703;48.076;9.220;2023-03-11T15:09:47;4.53;;;4.20;;
77563;SDS011;66703;48.076;9.220;2023-03-11T15:12:32;3.75;;;3.45;;
77563;SDS011;66703;48.076;9.220;2023-03-11T15:14:59;3.88;;;3.53;;
77563;SDS011;66703;48.076;9.220;2023-03-11T15:17:25;7.25;;;6.85;;
77563;SDS011;66703;48.076;9.220;2023-03-11T15:19:55;5.75;;;4.53;;
77563;SDS011;66703;48.076;9.220;2023-03-11T15:25:00;4.65;;;4.35;;
77563;SDS011;66703;48.076;9.220;2023-03-11T15:27:32;4.70;;;4.40;;
77563;SDS011;66703;48.076;9.220;2023-03-11T15:29:59;4.18;;;3.88;;
77563;SDS011;66703;48.076;9.220;2023-03-11T15:37:31;5.30;;;5.00;;
77563;SDS011;66703;48.076;9.220;2023-03-11T15:39:57;5.15;;;4.85;;
77563;SDS011;66703;48.076;9.220;2023-03-11T15:42:31;6.45;;;6.15;;
77563;SDS011;66703;48.076;9.220;2023-03-11T15:45:01;4.20;;;3.90;;
77563;SDS011;66703;48.076;9.220;2023-03-11T15:47:37;5.00;;;4.70;;
77563;SDS011;66703;48.076;9.220;2023-03-11T15:52:43;5.60;;;5.30;;
77563;SDS011;66703;48.076;9.220;2023-03-11T15:55:09;5.25;;;4.88;;
77563;SDS011;66703;48.076;9.220;2023-03-11T15:57:37;9.85;;;9.32;;
77563;SDS011;66703;48.076;9.220;2023-03-11T16:00:06;5.30;;;5.00;;
77563;SDS011;66703;48.076;9.220;2023-03-11T16:02:59;6.90;;;6.53;;
77563;SDS011;66703;48.076;9.220;2023-03-11T16:05:26;5.55;;;5.15;;
77563;SDS011;66703;48.076;9.220;2023-03-11T16:07:58;7.38;;;6.93;;
77563;SDS011;66703;48.076;9.220;2023-03-11T16:10:32;8.35;;;7.85;;
77563;SDS011;66703;48.076;9.220;2023-03-11T16:13:00;6.00;;;5.63;;
77563;SDS011;66703;48.076;9.220;2023-03-11T16:15:34;8.02;;;7.45;;
77563;SDS011;66703;48.076;9.220;2023-03-11T16:18:11;8.13;;;7.60;;
77563;SDS011;66703;48.076;9.220;2023-03-11T16:20:44;5.95;;;5.55;;
77563;SDS011;66703;48.076;9.220;2023-03-11T16:23:15;7.45;;;7.05;;
77563;SDS011;66703;48.076;9.220;2023-03-11T16:26:03;5.43;;;5.13;;
77563;SDS011;66703;48.076;9.220;2023-03-11T16:28:35;17.05;;;16.25;;
77563;SDS011;66703;48.076;9.220;2023-03-11T16:31:04;6.60;;;6.30;;
77563;SDS011;66703;48.076;9.220;2023-03-11T16:36:03;6.32;;;6.00;;
77563;SDS011;66703;48.076;9.220;2023-03-11T16:38:32;7.47;;;6.95;;
77563;SDS011;66703;48.076;9.220;2023-03-11T16:41:14;7.18;;;6.70;;
77563;SDS011;66703;48.076;9.220;2023-03-11T16:43:54;8.30;;;7.80;;
77563;SDS011;66703;48.076;9.220;2023-03-11T16:46:20;12.05;;;11.45;;
77563;SDS011;66703;48.076;9.220;2023-03-11T16:48:49;11.65;;;11.05;;
77563;SDS011;66703;48.076;9.220;2023-03-11T16:51:23;6.78;;;6.38;;
77563;SDS011;66703;48.076;9.220;2023-03-11T16:53:50;20.17;;;19.45;;
77563;SDS011;66703;48.076;9.220;2023-03-11T16:56:21;7.82;;;7.43;;
77563;SDS011;66703;48.076;9.220;2023-03-11T16:58:47;7.50;;;6.95;;
77563;SDS011;66703;48.076;9.220;2023-03-11T17:01:15;6.40;;;5.93;;
77563;SDS011;66703;48.076;9.220;2023-03-11T17:03:43;5.85;;;5.35;;
77563;SDS011;66703;48.076;9.220;2023-03-11T17:06:20;6.68;;;6.28;;
77563;SDS011;66703;48.076;9.220;2023-03-11T17:08:50;9.25;;;8.75;;
77563;SDS011;66703;48.076;9.220;2023-03-11T17:11:20;8.07;;;7.65;;
77563;SDS011;66703;48.076;9.220;2023-03-11T17:13:49;7.07;;;6.68;;